sensor_id;sensor_type;location;lat;lon;timestamp;temperature;humidity
80132;SHT30;69442;51.442;10.564;2023-04-26T00:00:22;6.51;61.54
80132;SHT30;69442;51.442;10.564;2023-04-26T00:02:48;6.50;61.77
80132;SHT30;69442;51.442;10.564;2023-04-26T00:05:15;6.48;61.61
80132;SHT30;69442;51.442;10.564;2023-04-26T00:07:41;6.48;61.75
80132;SHT30;69442;51.442;10.564;2023-04-26T00:10:07;6.51;61.74
80132;SHT30;69442;51.442;10.564;2023-04-26T00:12:33;6.50;61.61
80132;SHT30;69442;51.442;10.564;2023-04-26T00:14:59;6.47;61.36
80132;SHT30;69442;51.442;10.564;2023-04-26T00:17:24;6.44;61.62
80132;SHT30;69442;51.442;10.564;2023-04-26T00:19:49;6.44;61.74
80132;SHT30;69442;51.442;10.564;2023-04-26T00:22:15;6.40;61.68
80132;SHT30;69442;51.442;10.564;2023-04-26T00:24:41;6.38;61.88
80132;SHT30;69442;51.442;10.564;2023-04-26T00:27:07;6.38;61.95
80132;SHT30;69442;51.442;10.564;2023-04-26T00:29:33;6.33;62.08
80132;SHT30;69442;51.442;10.564;2023-04-26T00:31:58;6.36;61.90
80132;SHT30;69442;51.442;10.564;2023-04-26T00:34:24;6.32;61.79
80132;SHT30;69442;51.442;10.564;2023-04-26T00:36:49;6.29;62.03
80132;SHT30;69442;51.442;10.564;2023-04-26T00:39:15;6.25;61.97
80132;SHT30;69442;51.442;10.564;2023-04-26T00:41:40;6.23;62.31
80132;SHT30;69442;51.442;10.564;2023-04-26T00:44:06;6.25;62.17
80132;SHT30;69442;51.442;10.564;2023-04-26T00:46:31;6.20;62.24
80132;SHT30;69442;51.442;10.564;2023-04-26T00:48:57;6.19;62.29
80132;SHT30;69442;51.442;10.564;2023-04-26T00:51:22;6.16;62.26
80132;SHT30;69442;51.442;10.564;2023-04-26T00:53:48;6.15;62.25
80132;SHT30;69442;51.442;10.564;2023-04-26T00:56:15;6.13;62.29
80132;SHT30;69442;51.442;10.564;2023-04-26T00:58:40;6.09;62.42
80132;SHT30;69442;51.442;10.564;2023-04-26T01:01:06;6.08;62.58
80132;SHT30;69442;51.442;10.564;2023-04-26T01:03:32;6.03;62.57
80132;SHT30;69442;51.442;10.564;2023-04-26T01:05:57;6.01;62.66
80132;SHT30;69442;51.442;10.564;2023-04-26T01:08:23;6.01;62.67
80132;SHT30;69442;51.442;10.564;2023-04-26T01:10:49;5.98;62.55
80132;SHT30;69442;51.442;10.564;2023-04-26T01:13:15;5.97;62.70
80132;SHT30;69442;51.442;10.564;2023-04-26T01:15:47;5.95;62.83
80132;SHT30;69442;51.442;10.564;2023-04-26T01:18:13;5.88;62.72
80132;SHT30;69442;51.442;10.564;2023-04-26T01:20:40;5.87;62.78
80132;SHT30;69442;51.442;10.564;2023-04-26T01:23:06;5.84;62.78
80132;SHT30;69442;51.442;10.564;2023-04-26T01:25:32;5.81;63.05
80132;SHT30;69442;51.442;10.564;2023-04-26T01:27:58;5.81;63.21
80132;SHT30;69442;51.442;10.564;2023-04-26T01:30:24;5.78;63.03
80132;SHT30;69442;51.442;10.564;2023-04-26T01:32:49;5.75;63.21
80132;SHT30;69442;51.442;10.564;2023-04-26T01:35:15;5.71;63.27
80132;SHT30;69442;51.442;10.564;2023-04-26T01:37:40;5.67;63.34
80132;SHT30;69442;51.442;10.564;2023-04-26T01:40:06;5.68;63.28
80132;SHT30;69442;51.442;10.564;2023-04-26T01:42:32;5.65;63.36
80132;SHT30;69442;51.442;10.564;2023-04-26T01:44:57;5.65;63.28
80132;SHT30;69442;51.442;10.564;2023-04-26T01:47:22;5.63;63.39
80132;SHT30;69442;51.442;10.564;2023-04-26T01:49:50;5.61;63.21
80132;SHT30;69442;51.442;10.564;2023-04-26T01:52:15;5.55;63.20
80132;SHT30;69442;51.442;10.564;2023-04-26T01:54:41;5.57;63.13
80132;SHT30;69442;51.442;10.564;2023-04-26T01:57:06;5.54;63.21
80132;SHT30;69442;51.442;10.564;2023-04-26T01:59:31;5.53;63.47
80132;SHT30;69442;51.442;10.564;2023-04-26T02:01:57;5.47;63.66
80132;SHT30;69442;51.442;10.564;2023-04-26T02:04:22;5.46;63.74
80132;SHT30;69442;51.442;10.564;2023-04-26T02:06:48;5.48;63.67
80132;SHT30;69442;51.442;10.564;2023-04-26T02:09:13;5.43;63.74
80132;SHT30;69442;51.442;10.564;2023-04-26T02:11:39;5.42;63.78
80132;SHT30;69442;51.442;10.564;2023-04-26T02:14:05;5.40;63.81
80132;SHT30;69442;51.442;10.564;2023-04-26T02:16:30;5.44;63.96
80132;SHT30;69442;51.442;10.564;2023-04-26T02:18:57;5.44;63.93
80132;SHT30;69442;51.442;10.564;2023-04-26T02:21:23;5.40;63.98
80132;SHT30;69442;51.442;10.564;2023-04-26T02:23:49;5.43;63.94
80132;SHT30;69442;51.442;10.564;2023-04-26T02:26:14;5.40;63.98
80132;SHT30;69442;51.442;10.564;2023-04-26T02:28:40;5.42;63.77
80132;SHT30;69442;51.442;10.564;2023-04-26T02:31:06;5.37;63.76
80132;SHT30;69442;51.442;10.564;2023-04-26T02:33:32;5.36;63.76
80132;SHT30;69442;51.442;10.564;2023-04-26T02:35:58;5.35;63.73
80132;SHT30;69442;51.442;10.564;2023-04-26T02:38:23;5.35;63.88
80132;SHT30;69442;51.442;10.564;2023-04-26T02:41:00;5.33;63.82
80132;SHT30;69442;51.442;10.564;2023-04-26T02:43:25;5.27;63.80
80132;SHT30;69442;51.442;10.564;2023-04-26T02:45:51;5.26;64.06
80132;SHT30;69442;51.442;10.564;2023-04-26T02:48:16;5.25;64.27
80132;SHT30;69442;51.442;10.564;2023-04-26T02:50:42;5.22;64.16
80132;SHT30;69442;51.442;10.564;2023-04-26T02:53:07;5.23;64.26
80132;SHT30;69442;51.442;10.564;2023-04-26T02:55:33;5.15;64.03
80132;SHT30;69442;51.442;10.564;2023-04-26T02:57:58;5.16;64.40
80132;SHT30;69442;51.442;10.564;2023-04-26T03:00:23;5.16;64.33
80132;SHT30;69442;51.442;10.564;2023-04-26T03:02:49;5.15;64.19
80132;SHT30;69442;51.442;10.564;2023-04-26T03:05:14;5.13;64.17
80132;SHT30;69442;51.442;10.564;2023-04-26T03:07:40;5.13;64.25
80132;SHT30;69442;51.442;10.564;2023-04-26T03:10:05;5.09;64.28
80132;SHT30;69442;51.442;10.564;2023-04-26T03:12:32;5.08;64.18
80132;SHT30;69442;51.442;10.564;2023-04-26T03:14:58;5.07;64.07
80132;SHT30;69442;51.442;10.564;2023-04-26T03:17:23;5.04;64.05
80132;SHT30;69442;51.442;10.564;2023-04-26T03:19:48;5.05;64.19
80132;SHT30;69442;51.442;10.564;2023-04-26T03:22:14;4.98;63.95
80132;SHT30;69442;51.442;10.564;2023-04-26T03:24:42;4.96;64.16
80132;SHT30;69442;51.442;10.564;2023-04-26T03:27:08;4.95;64.17
80132;SHT30;69442;51.442;10.564;2023-04-26T03:29:34;4.95;64.09
80132;SHT30;69442;51.442;10.564;2023-04-26T03:32:00;4.92;64.14
80132;SHT30;69442;51.442;10.564;2023-04-26T03:34:25;4.89;64.09
80132;SHT30;69442;51.442;10.564;2023-04-26T03:36:51;4.89;64.12
80132;SHT30;69442;51.442;10.564;2023-04-26T03:39:17;4.87;64.32
80132;SHT30;69442;51.442;10.564;2023-04-26T03:41:42;4.81;63.99
80132;SHT30;69442;51.442;10.564;2023-04-26T03:44:07;4.80;64.28
80132;SHT30;69442;51.442;10.564;2023-04-26T03:46:33;4.75;64.07
80132;SHT30;69442;51.442;10.564;2023-04-26T03:48:58;4.75;64.40
80132;SHT30;69442;51.442;10.564;2023-04-26T03:51:24;4.68;64.32
80132;SHT30;69442;51.442;10.564;2023-04-26T03:53:49;4.71;64.28
80132;SHT30;69442;51.442;10.564;2023-04-26T03:56:15;4.66;64.39
80132;SHT30;69442;51.442;10.564;2023-04-26T03:58:41;4.61;64.40
80132;SHT30;69442;51.442;10.564;2023-04-26T04:01:07;4.58;64.52
80132;SHT30;69442;51.442;10.564;2023-04-26T04:03:32;4.63;64.47
80132;SHT30;69442;51.442;10.564;2023-04-26T04:05:58;4.58;64.47
80132;SHT30;69442;51.442;10.564;2023-04-26T04:08:23;4.53;64.58
80132;SHT30;69442;51.442;10.564;2023-04-26T04:10:49;4.49;64.61
80132;SHT30;69442;51.442;10.564;2023-04-26T04:13:14;4.50;64.52
80132;SHT30;69442;51.442;10.564;2023-04-26T04:15:40;4.46;64.46
80132;SHT30;69442;51.442;10.564;2023-04-26T04:18:05;4.42;64.52
80132;SHT30;69442;51.442;10.564;2023-04-26T04:20:31;4.43;64.55
80132;SHT30;69442;51.442;10.564;2023-04-26T04:22:56;4.42;64.35
80132;SHT30;69442;51.442;10.564;2023-04-26T04:25:26;4.38;64.51
80132;SHT30;69442;51.442;10.564;2023-04-26T04:27:51;4.36;64.48
80132;SHT30;69442;51.442;10.564;2023-04-26T04:30:17;4.36;64.53
80132;SHT30;69442;51.442;10.564;2023-04-26T04:32:42;4.32;64.56
80132;SHT30;69442;51.442;10.564;2023-04-26T04:35:09;4.32;64.68
80132;SHT30;69442;51.442;10.564;2023-04-26T04:37:34;4.32;64.61
80132;SHT30;69442;51.442;10.564;2023-04-26T04:40:00;4.28;64.54
80132;SHT30;69442;51.442;10.564;2023-04-26T04:42:25;4.28;64.64
80132;SHT30;69442;51.442;10.564;2023-04-26T04:44:52;4.22;64.92
80132;SHT30;69442;51.442;10.564;2023-04-26T04:47:18;4.21;64.96
80132;SHT30;69442;51.442;10.564;2023-04-26T04:49:43;4.21;65.06
80132;SHT30;69442;51.442;10.564;2023-04-26T04:52:09;4.19;65.41
80132;SHT30;69442;51.442;10.564;2023-04-26T04:54:35;4.18;65.27
80132;SHT30;69442;51.442;10.564;2023-04-26T04:57:00;4.18;65.54
80132;SHT30;69442;51.442;10.564;2023-04-26T04:59:26;4.18;65.64
80132;SHT30;69442;51.442;10.564;2023-04-26T05:01:51;4.18;65.81
80132;SHT30;69442;51.442;10.564;2023-04-26T05:04:16;4.22;65.96
80132;SHT30;69442;51.442;10.564;2023-04-26T05:06:42;4.21;66.07
80132;SHT30;69442;51.442;10.564;2023-04-26T05:09:08;4.19;66.07
80132;SHT30;69442;51.442;10.564;2023-04-26T05:11:33;4.18;66.33
80132;SHT30;69442;51.442;10.564;2023-04-26T05:13:59;4.21;66.41
80132;SHT30;69442;51.442;10.564;2023-04-26T05:16:24;4.18;66.20
80132;SHT30;69442;51.442;10.564;2023-04-26T05:18:50;4.21;66.25
80132;SHT30;69442;51.442;10.564;2023-04-26T05:21:15;4.21;66.18
80132;SHT30;69442;51.442;10.564;2023-04-26T05:23:41;4.22;66.10
80132;SHT30;69442;51.442;10.564;2023-04-26T05:26:12;4.19;66.24
80132;SHT30;69442;51.442;10.564;2023-04-26T05:28:37;4.22;66.15
80132;SHT30;69442;51.442;10.564;2023-04-26T05:31:03;4.25;66.25
80132;SHT30;69442;51.442;10.564;2023-04-26T05:33:28;4.25;66.29
80132;SHT30;69442;51.442;10.564;2023-04-26T05:35:54;4.26;66.87
80132;SHT30;69442;51.442;10.564;2023-04-26T05:38:22;4.28;67.40
80132;SHT30;69442;51.442;10.564;2023-04-26T05:40:47;4.29;67.16
80132;SHT30;69442;51.442;10.564;2023-04-26T05:43:13;4.30;67.05
80132;SHT30;69442;51.442;10.564;2023-04-26T05:45:38;4.33;67.21
80132;SHT30;69442;51.442;10.564;2023-04-26T05:48:04;4.30;67.09
80132;SHT30;69442;51.442;10.564;2023-04-26T05:50:29;4.36;67.02
80132;SHT30;69442;51.442;10.564;2023-04-26T05:52:55;4.36;67.09
80132;SHT30;69442;51.442;10.564;2023-04-26T05:55:20;4.38;67.16
80132;SHT30;69442;51.442;10.564;2023-04-26T05:57:46;4.42;67.15
80132;SHT30;69442;51.442;10.564;2023-04-26T06:00:12;4.43;67.47
80132;SHT30;69442;51.442;10.564;2023-04-26T06:02:38;4.50;67.80
80132;SHT30;69442;51.442;10.564;2023-04-26T06:05:03;4.53;67.75
80132;SHT30;69442;51.442;10.564;2023-04-26T06:07:31;4.56;68.00
80132;SHT30;69442;51.442;10.564;2023-04-26T06:09:56;4.61;68.00
80132;SHT30;69442;51.442;10.564;2023-04-26T06:12:21;4.63;68.05
80132;SHT30;69442;51.442;10.564;2023-04-26T06:14:47;4.68;68.31
80132;SHT30;69442;51.442;10.564;2023-04-26T06:17:12;4.71;68.19
80132;SHT30;69442;51.442;10.564;2023-04-26T06:19:38;4.75;67.72
80132;SHT30;69442;51.442;10.564;2023-04-26T06:22:03;4.80;67.76
80132;SHT30;69442;51.442;10.564;2023-04-26T06:24:29;4.85;67.35
80132;SHT30;69442;51.442;10.564;2023-04-26T06:26:54;4.92;67.34
80132;SHT30;69442;51.442;10.564;2023-04-26T06:29:20;4.96;67.68
80132;SHT30;69442;51.442;10.564;2023-04-26T06:31:45;5.04;67.88
80132;SHT30;69442;51.442;10.564;2023-04-26T06:34:11;5.11;67.86
80132;SHT30;69442;51.442;10.564;2023-04-26T06:36:36;5.12;67.43
80132;SHT30;69442;51.442;10.564;2023-04-26T06:39:01;5.20;67.61
80132;SHT30;69442;51.442;10.564;2023-04-26T06:41:27;5.22;66.96
80132;SHT30;69442;51.442;10.564;2023-04-26T06:43:52;5.30;66.77
80132;SHT30;69442;51.442;10.564;2023-04-26T06:46:18;5.33;66.67
80132;SHT30;69442;51.442;10.564;2023-04-26T06:48:43;5.36;66.43
80132;SHT30;69442;51.442;10.564;2023-04-26T06:51:08;5.42;66.48
80132;SHT30;69442;51.442;10.564;2023-04-26T06:53:37;5.46;66.55
80132;SHT30;69442;51.442;10.564;2023-04-26T06:56:02;5.53;66.59
80132;SHT30;69442;51.442;10.564;2023-04-26T06:58:28;5.58;66.24
80132;SHT30;69442;51.442;10.564;2023-04-26T07:00:53;5.65;66.11
80132;SHT30;69442;51.442;10.564;2023-04-26T07:03:18;5.71;65.93
80132;SHT30;69442;51.442;10.564;2023-04-26T07:05:44;5.79;65.99
80132;SHT30;69442;51.442;10.564;2023-04-26T07:08:10;5.88;65.80
80132;SHT30;69442;51.442;10.564;2023-04-26T07:10:36;5.92;65.52
80132;SHT30;69442;51.442;10.564;2023-04-26T07:13:03;6.01;65.34
80132;SHT30;69442;51.442;10.564;2023-04-26T07:15:28;6.08;65.13
80132;SHT30;69442;51.442;10.564;2023-04-26T07:17:53;6.16;64.85
80132;SHT30;69442;51.442;10.564;2023-04-26T07:20:19;6.22;64.74
80132;SHT30;69442;51.442;10.564;2023-04-26T07:22:46;6.32;64.47
80132;SHT30;69442;51.442;10.564;2023-04-26T07:25:12;6.36;64.33
80132;SHT30;69442;51.442;10.564;2023-04-26T07:27:38;6.41;64.11
80132;SHT30;69442;51.442;10.564;2023-04-26T07:30:03;6.48;63.91
80132;SHT30;69442;51.442;10.564;2023-04-26T07:32:30;6.55;63.71
80132;SHT30;69442;51.442;10.564;2023-04-26T07:34:55;6.60;63.59
80132;SHT30;69442;51.442;10.564;2023-04-26T07:37:21;6.64;63.38
80132;SHT30;69442;51.442;10.564;2023-04-26T07:39:46;6.71;63.10
80132;SHT30;69442;51.442;10.564;2023-04-26T07:42:12;6.77;63.05
80132;SHT30;69442;51.442;10.564;2023-04-26T07:44:37;6.84;62.97
80132;SHT30;69442;51.442;10.564;2023-04-26T07:47:02;6.93;62.81
80132;SHT30;69442;51.442;10.564;2023-04-26T07:49:28;6.96;62.55
80132;SHT30;69442;51.442;10.564;2023-04-26T07:51:53;7.02;62.36
80132;SHT30;69442;51.442;10.564;2023-04-26T07:54:20;7.07;61.98
80132;SHT30;69442;51.442;10.564;2023-04-26T07:56:46;7.12;61.90
80132;SHT30;69442;51.442;10.564;2023-04-26T07:59:11;7.15;61.79
80132;SHT30;69442;51.442;10.564;2023-04-26T08:01:37;7.22;61.40
80132;SHT30;69442;51.442;10.564;2023-04-26T08:04:03;7.30;61.27
80132;SHT30;69442;51.442;10.564;2023-04-26T08:06:29;7.35;60.89
80132;SHT30;69442;51.442;10.564;2023-04-26T08:08:55;7.43;60.75
80132;SHT30;69442;51.442;10.564;2023-04-26T08:11:20;7.47;60.45
80132;SHT30;69442;51.442;10.564;2023-04-26T08:13:46;7.52;60.46
80132;SHT30;69442;51.442;10.564;2023-04-26T08:16:11;7.58;60.34
80132;SHT30;69442;51.442;10.564;2023-04-26T08:18:36;7.64;60.20
80132;SHT30;69442;51.442;10.564;2023-04-26T08:21:02;7.67;60.07
80132;SHT30;69442;51.442;10.564;2023-04-26T08:23:28;7.69;59.98
80132;SHT30;69442;51.442;10.564;2023-04-26T08:25:56;7.74;59.88
80132;SHT30;69442;51.442;10.564;2023-04-26T08:28:22;7.76;59.89
80132;SHT30;69442;51.442;10.564;2023-04-26T08:30:47;7.79;59.91
80132;SHT30;69442;51.442;10.564;2023-04-26T08:33:12;7.82;59.86
80132;SHT30;69442;51.442;10.564;2023-04-26T08:35:38;7.86;59.87
80132;SHT30;69442;51.442;10.564;2023-04-26T08:38:03;7.87;59.81
80132;SHT30;69442;51.442;10.564;2023-04-26T08:40:29;7.90;59.38
80132;SHT30;69442;51.442;10.564;2023-04-26T08:42:54;7.92;59.19
80132;SHT30;69442;51.442;10.564;2023-04-26T08:45:20;7.93;59.33
80132;SHT30;69442;51.442;10.564;2023-04-26T08:47:48;7.97;58.56
80132;SHT30;69442;51.442;10.564;2023-04-26T08:50:18;7.99;58.87
80132;SHT30;69442;51.442;10.564;2023-04-26T08:52:47;8.02;58.72
80132;SHT30;69442;51.442;10.564;2023-04-26T08:55:13;8.04;58.52
80132;SHT30;69442;51.442;10.564;2023-04-26T08:57:41;8.07;58.62
80132;SHT30;69442;51.442;10.564;2023-04-26T09:00:08;8.10;58.50
80132;SHT30;69442;51.442;10.564;2023-04-26T09:02:39;8.13;58.63
80132;SHT30;69442;51.442;10.564;2023-04-26T09:05:06;8.16;58.55
80132;SHT30;69442;51.442;10.564;2023-04-26T09:07:39;8.21;58.52
80132;SHT30;69442;51.442;10.564;2023-04-26T09:10:06;8.29;58.27
80132;SHT30;69442;51.442;10.564;2023-04-26T09:12:32;8.34;58.47
80132;SHT30;69442;51.442;10.564;2023-04-26T09:14:57;8.40;58.06
80132;SHT30;69442;51.442;10.564;2023-04-26T09:19:51;8.44;57.20
80132;SHT30;69442;51.442;10.564;2023-04-26T09:22:34;8.48;56.95
80132;SHT30;69442;51.442;10.564;2023-04-26T09:25:03;8.52;57.56
80132;SHT30;69442;51.442;10.564;2023-04-26T09:27:35;8.52;57.54
80132;SHT30;69442;51.442;10.564;2023-04-26T09:32:57;8.59;57.13
80132;SHT30;69442;51.442;10.564;2023-04-26T09:35:33;8.62;57.28
80132;SHT30;69442;51.442;10.564;2023-04-26T09:40:31;8.69;57.32
80132;SHT30;69442;51.442;10.564;2023-04-26T09:42:58;8.73;57.43
80132;SHT30;69442;51.442;10.564;2023-04-26T09:45:25;8.77;57.51
80132;SHT30;69442;51.442;10.564;2023-04-26T09:47:51;8.85;57.63
80132;SHT30;69442;51.442;10.564;2023-04-26T09:50:30;8.92;57.63
80132;SHT30;69442;51.442;10.564;2023-04-26T09:52:56;9.00;57.63
80132;SHT30;69442;51.442;10.564;2023-04-26T09:55:26;9.09;57.43
80132;SHT30;69442;51.442;10.564;2023-04-26T09:57:56;9.10;57.35
80132;SHT30;69442;51.442;10.564;2023-04-26T10:00:25;9.13;57.29
80132;SHT30;69442;51.442;10.564;2023-04-26T10:02:54;9.17;57.35
80132;SHT30;69442;51.442;10.564;2023-04-26T10:05:21;9.21;57.28
80132;SHT30;69442;51.442;10.564;2023-04-26T10:07:48;9.19;57.22
80132;SHT30;69442;51.442;10.564;2023-04-26T10:10:13;9.24;57.21
80132;SHT30;69442;51.442;10.564;2023-04-26T10:12:42;9.24;57.03
80132;SHT30;69442;51.442;10.564;2023-04-26T10:15:09;9.27;57.02
80132;SHT30;69442;51.442;10.564;2023-04-26T10:17:36;9.26;57.11
80132;SHT30;69442;51.442;10.564;2023-04-26T10:20:01;9.30;56.91
80132;SHT30;69442;51.442;10.564;2023-04-26T10:22:32;9.32;57.00
80132;SHT30;69442;51.442;10.564;2023-04-26T10:24:58;9.35;56.80
80132;SHT30;69442;51.442;10.564;2023-04-26T10:33:09;9.48;56.75
80132;SHT30;69442;51.442;10.564;2023-04-26T10:35:35;9.51;57.06
80132;SHT30;69442;51.442;10.564;2023-04-26T10:40:32;9.59;56.43
80132;SHT30;69442;51.442;10.564;2023-04-26T10:45:36;9.59;56.07
80132;SHT30;69442;51.442;10.564;2023-04-26T10:51:10;9.62;55.14
80132;SHT30;69442;51.442;10.564;2023-04-26T10:59:06;9.66;55.88
80132;SHT30;69442;51.442;10.564;2023-04-26T11:01:31;9.75;56.12
80132;SHT30;69442;51.442;10.564;2023-04-26T11:06:23;9.82;56.44
80132;SHT30;69442;51.442;10.564;2023-04-26T11:08:49;9.86;56.20
80132;SHT30;69442;51.442;10.564;2023-04-26T11:11:16;9.87;56.16
80132;SHT30;69442;51.442;10.564;2023-04-26T11:13:44;9.93;56.22
80132;SHT30;69442;51.442;10.564;2023-04-26T11:16:10;9.90;56.24
80132;SHT30;69442;51.442;10.564;2023-04-26T11:18:37;9.96;56.04
80132;SHT30;69442;51.442;10.564;2023-04-26T11:21:06;9.99;56.11
80132;SHT30;69442;51.442;10.564;2023-04-26T11:23:32;10.00;56.23
80132;SHT30;69442;51.442;10.564;2023-04-26T11:25:59;10.04;56.32
80132;SHT30;69442;51.442;10.564;2023-04-26T11:28:27;10.10;56.38
80132;SHT30;69442;51.442;10.564;2023-04-26T11:30:53;10.16;56.21
80132;SHT30;69442;51.442;10.564;2023-04-26T11:33:20;10.25;55.99
80132;SHT30;69442;51.442;10.564;2023-04-26T11:35:52;10.33;55.77
80132;SHT30;69442;51.442;10.564;2023-04-26T11:38:22;10.44;55.61
80132;SHT30;69442;51.442;10.564;2023-04-26T11:40:57;10.53;55.45
80132;SHT30;69442;51.442;10.564;2023-04-26T11:43:48;10.65;55.25
80132;SHT30;69442;51.442;10.564;2023-04-26T11:46:14;10.75;55.43
80132;SHT30;69442;51.442;10.564;2023-04-26T11:48:41;10.81;54.67
80132;SHT30;69442;51.442;10.564;2023-04-26T11:51:09;10.83;54.13
80132;SHT30;69442;51.442;10.564;2023-04-26T11:53:37;10.89;54.36
80132;SHT30;69442;51.442;10.564;2023-04-26T11:56:04;10.93;54.52
80132;SHT30;69442;51.442;10.564;2023-04-26T11:58:37;10.93;54.43
80132;SHT30;69442;51.442;10.564;2023-04-26T12:01:03;10.97;54.57
80132;SHT30;69442;51.442;10.564;2023-04-26T12:03:33;11.00;54.05
80132;SHT30;69442;51.442;10.564;2023-04-26T12:06:02;11.04;53.95
80132;SHT30;69442;51.442;10.564;2023-04-26T12:08:28;11.06;53.50
80132;SHT30;69442;51.442;10.564;2023-04-26T12:10:58;11.13;53.76
80132;SHT30;69442;51.442;10.564;2023-04-26T12:13:23;11.14;54.01
80132;SHT30;69442;51.442;10.564;2023-04-26T12:15:49;11.20;52.88
80132;SHT30;69442;51.442;10.564;2023-04-26T12:18:16;11.20;53.56
80132;SHT30;69442;51.442;10.564;2023-04-26T12:20:42;11.23;53.73
80132;SHT30;69442;51.442;10.564;2023-04-26T12:23:13;11.30;53.44
80132;SHT30;69442;51.442;10.564;2023-04-26T12:25:40;11.31;52.99
80132;SHT30;69442;51.442;10.564;2023-04-26T12:28:08;11.32;53.12
80132;SHT30;69442;51.442;10.564;2023-04-26T12:30:37;11.34;53.29
80132;SHT30;69442;51.442;10.564;2023-04-26T12:33:03;11.35;53.46
80132;SHT30;69442;51.442;10.564;2023-04-26T12:35:29;11.39;53.75
80132;SHT30;69442;51.442;10.564;2023-04-26T12:37:55;11.43;53.18
80132;SHT30;69442;51.442;10.564;2023-04-26T12:40:22;11.45;52.12
80132;SHT30;69442;51.442;10.564;2023-04-26T12:42:48;11.41;52.41
80132;SHT30;69442;51.442;10.564;2023-04-26T12:45:18;11.42;53.17
80132;SHT30;69442;51.442;10.564;2023-04-26T12:47:44;11.42;52.97
80132;SHT30;69442;51.442;10.564;2023-04-26T12:50:10;11.45;53.48
80132;SHT30;69442;51.442;10.564;2023-04-26T12:52:40;11.41;53.55
80132;SHT30;69442;51.442;10.564;2023-04-26T12:55:07;11.46;53.56
80132;SHT30;69442;51.442;10.564;2023-04-26T12:57:37;11.46;53.82
80132;SHT30;69442;51.442;10.564;2023-04-26T13:00:08;11.46;54.03
80132;SHT30;69442;51.442;10.564;2023-04-26T13:02:34;11.51;54.08
80132;SHT30;69442;51.442;10.564;2023-04-26T13:05:00;11.55;54.27
80132;SHT30;69442;51.442;10.564;2023-04-26T13:07:30;11.61;54.27
80132;SHT30;69442;51.442;10.564;2023-04-26T13:09:55;11.62;54.14
80132;SHT30;69442;51.442;10.564;2023-04-26T13:12:22;11.65;54.01
80132;SHT30;69442;51.442;10.564;2023-04-26T13:14:47;11.69;53.21
80132;SHT30;69442;51.442;10.564;2023-04-26T13:17:13;11.70;53.50
80132;SHT30;69442;51.442;10.564;2023-04-26T13:19:38;11.72;53.58
80132;SHT30;69442;51.442;10.564;2023-04-26T13:22:03;11.77;53.66
80132;SHT30;69442;51.442;10.564;2023-04-26T13:24:31;11.75;53.34
80132;SHT30;69442;51.442;10.564;2023-04-26T13:26:57;11.77;53.51
80132;SHT30;69442;51.442;10.564;2023-04-26T13:29:22;11.80;53.49
80132;SHT30;69442;51.442;10.564;2023-04-26T13:31:48;11.76;52.23
80132;SHT30;69442;51.442;10.564;2023-04-26T13:34:13;11.75;51.22
80132;SHT30;69442;51.442;10.564;2023-04-26T13:36:39;11.75;52.21
80132;SHT30;69442;51.442;10.564;2023-04-26T13:39:06;11.76;51.98
80132;SHT30;69442;51.442;10.564;2023-04-26T13:41:32;11.77;51.38
80132;SHT30;69442;51.442;10.564;2023-04-26T13:44:00;11.76;50.86
80132;SHT30;69442;51.442;10.564;2023-04-26T13:46:26;11.76;51.91
80132;SHT30;69442;51.442;10.564;2023-04-26T13:48:52;11.79;50.70
80132;SHT30;69442;51.442;10.564;2023-04-26T13:51:17;11.79;51.27
80132;SHT30;69442;51.442;10.564;2023-04-26T13:53:43;11.76;50.94
80132;SHT30;69442;51.442;10.564;2023-04-26T13:56:08;11.79;50.29
80132;SHT30;69442;51.442;10.564;2023-04-26T13:58:34;11.79;50.70
80132;SHT30;69442;51.442;10.564;2023-04-26T14:01:01;11.82;50.52
80132;SHT30;69442;51.442;10.564;2023-04-26T14:03:27;11.86;51.31
80132;SHT30;69442;51.442;10.564;2023-04-26T14:05:53;11.90;51.14
80132;SHT30;69442;51.442;10.564;2023-04-26T14:08:18;11.90;51.05
80132;SHT30;69442;51.442;10.564;2023-04-26T14:10:44;11.95;50.13
80132;SHT30;69442;51.442;10.564;2023-04-26T14:13:09;11.97;49.50
80132;SHT30;69442;51.442;10.564;2023-04-26T14:15:37;11.94;48.52
80132;SHT30;69442;51.442;10.564;2023-04-26T14:18:03;11.91;49.54
80132;SHT30;69442;51.442;10.564;2023-04-26T14:20:28;11.90;50.27
80132;SHT30;69442;51.442;10.564;2023-04-26T14:22:53;11.94;50.38
80132;SHT30;69442;51.442;10.564;2023-04-26T14:25:19;11.91;49.80
80132;SHT30;69442;51.442;10.564;2023-04-26T14:27:44;11.89;50.23
80132;SHT30;69442;51.442;10.564;2023-04-26T14:30:10;11.87;49.80
80132;SHT30;69442;51.442;10.564;2023-04-26T14:32:36;11.89;50.18
80132;SHT30;69442;51.442;10.564;2023-04-26T14:35:03;11.84;49.58
80132;SHT30;69442;51.442;10.564;2023-04-26T14:37:28;11.82;49.74
80132;SHT30;69442;51.442;10.564;2023-04-26T14:39:53;11.77;50.03
80132;SHT30;69442;51.442;10.564;2023-04-26T14:42:20;11.75;49.56
80132;SHT30;69442;51.442;10.564;2023-04-26T14:44:46;11.72;50.33
80132;SHT30;69442;51.442;10.564;2023-04-26T14:47:12;11.69;50.32
80132;SHT30;69442;51.442;10.564;2023-04-26T14:49:37;11.69;50.62
80132;SHT30;69442;51.442;10.564;2023-04-26T14:52:02;11.69;50.30
80132;SHT30;69442;51.442;10.564;2023-04-26T14:54:28;11.66;50.43
80132;SHT30;69442;51.442;10.564;2023-04-26T14:56:53;11.67;50.57
80132;SHT30;69442;51.442;10.564;2023-04-26T14:59:19;11.67;50.63
80132;SHT30;69442;51.442;10.564;2023-04-26T15:01:45;11.62;50.43
80132;SHT30;69442;51.442;10.564;2023-04-26T15:04:11;11.62;50.16
80132;SHT30;69442;51.442;10.564;2023-04-26T15:06:37;11.61;50.61
80132;SHT30;69442;51.442;10.564;2023-04-26T15:09:03;11.61;50.74
80132;SHT30;69442;51.442;10.564;2023-04-26T15:11:28;11.62;50.08
80132;SHT30;69442;51.442;10.564;2023-04-26T15:13:54;11.63;50.45
80132;SHT30;69442;51.442;10.564;2023-04-26T15:16:19;11.65;50.58
80132;SHT30;69442;51.442;10.564;2023-04-26T15:18:44;11.65;50.22
80132;SHT30;69442;51.442;10.564;2023-04-26T15:21:18;11.65;50.25
80132;SHT30;69442;51.442;10.564;2023-04-26T15:23:43;11.63;50.39
80132;SHT30;69442;51.442;10.564;2023-04-26T15:26:09;11.65;50.14
80132;SHT30;69442;51.442;10.564;2023-04-26T15:28:34;11.63;50.13
80132;SHT30;69442;51.442;10.564;2023-04-26T15:31:03;11.65;50.26
80132;SHT30;69442;51.442;10.564;2023-04-26T15:33:29;11.66;50.58
80132;SHT30;69442;51.442;10.564;2023-04-26T15:35:55;11.72;50.70
80132;SHT30;69442;51.442;10.564;2023-04-26T15:38:22;11.77;50.72
80132;SHT30;69442;51.442;10.564;2023-04-26T15:40:47;11.82;51.20
80132;SHT30;69442;51.442;10.564;2023-04-26T15:43:15;11.87;51.05
80132;SHT30;69442;51.442;10.564;2023-04-26T15:45:40;11.93;50.85
80132;SHT30;69442;51.442;10.564;2023-04-26T15:48:06;11.98;50.90
80132;SHT30;69442;51.442;10.564;2023-04-26T15:50:31;12.03;50.85